createdAt,value
2023-03-27T00:01:30.771Z,67.31
2023-03-27T00:03:57.837Z,67.20
2023-03-27T00:06:27.606Z,67.30
2023-03-27T00:08:54.562Z,67.17
2023-03-27T00:11:25.198Z,67.00
2023-03-27T00:13:54.766Z,66.94
2023-03-27T00:16:23.111Z,66.82
2023-03-27T00:18:50.344Z,67.07
2023-03-27T00:21:17.382Z,67.16
2023-03-27T00:23:44.555Z,67.25
2023-03-27T00:26:15.583Z,67.24
2023-03-27T00:28:42.560Z,67.17
2023-03-27T00:31:14.465Z,67.24
2023-03-27T00:33:42.165Z,67.34
2023-03-27T00:36:10.421Z,67.25
2023-03-27T00:38:37.399Z,67.15
2023-03-27T00:41:05.212Z,66.96
2023-03-27T00:43:36.634Z,66.84
2023-03-27T00:46:18.936Z,67.00
2023-03-27T00:48:50.274Z,67.08
2023-03-27T00:51:20.104Z,67.31
2023-03-27T00:53:48.373Z,67.25
2023-03-27T00:56:16.820Z,67.37
2023-03-27T00:58:51.439Z,67.25
2023-03-27T01:01:20.230Z,67.34
2023-03-27T01:03:49.504Z,67.39
2023-03-27T01:06:17.551Z,67.59
2023-03-27T01:08:46.277Z,67.62
2023-03-27T01:11:13.292Z,67.57
2023-03-27T01:13:43.111Z,67.66
2023-03-27T01:16:23.362Z,67.65
2023-03-27T01:18:59.324Z,67.61
2023-03-27T01:21:54.104Z,67.58
2023-03-27T01:25:04.457Z,67.66
2023-03-27T01:27:58.761Z,67.71
2023-03-27T01:30:32.039Z,67.70
2023-03-27T01:33:01.956Z,67.52
2023-03-27T01:35:38.024Z,67.52
2023-03-27T01:38:11.077Z,67.38
2023-03-27T01:41:06.477Z,67.43
2023-03-27T01:43:51.950Z,67.40
2023-03-27T01:46:28.752Z,67.42
2023-03-27T01:49:02.970Z,67.52
2023-03-27T01:51:39.826Z,67.54
2023-03-27T01:54:24.965Z,67.63
2023-03-27T01:57:04.779Z,67.68
2023-03-27T01:59:36.694Z,67.77
2023-03-27T02:02:10.608Z,67.87
2023-03-27T02:05:01.406Z,67.98
2023-03-27T02:07:42.778Z,67.96
2023-03-27T02:10:15.497Z,68.08
2023-03-27T02:12:53.151Z,68.12
2023-03-27T02:18:13.104Z,68.06
2023-03-27T02:20:41.821Z,68.13
2023-03-27T02:23:08.995Z,68.04
2023-03-27T02:25:38.449Z,68.11
2023-03-27T02:28:24.094Z,68.20
2023-03-27T02:31:31.507Z,68.20
2023-03-27T02:34:13.581Z,68.30
2023-03-27T02:37:02.366Z,68.15
2023-03-27T02:40:10.469Z,68.24
2023-03-27T02:43:03.240Z,68.13
2023-03-27T02:46:05.644Z,67.94
2023-03-27T02:48:42.429Z,67.95
2023-03-27T02:51:11.746Z,67.90
2023-03-27T02:53:46.896Z,67.89
2023-03-27T02:56:16.532Z,67.99
2023-03-27T02:59:11.594Z,68.01
2023-03-27T03:01:41.217Z,68.14
2023-03-27T03:04:28.591Z,68.22
2023-03-27T03:07:07.259Z,68.19
2023-03-27T03:09:34.777Z,68.24
2023-03-27T03:12:08.394Z,68.15
2023-03-27T03:14:44.339Z,68.20
2023-03-27T03:17:12.632Z,68.29
2023-03-27T03:19:39.498Z,68.10
2023-03-27T03:22:07.046Z,68.23
2023-03-27T03:24:35.830Z,68.27
2023-03-27T03:27:05.958Z,68.18
2023-03-27T03:29:40.597Z,68.22
2023-03-27T03:32:13.342Z,68.36
2023-03-27T03:34:41.804Z,68.35
2023-03-27T03:37:11.265Z,68.27
2023-03-27T03:39:38.235Z,68.37
2023-03-27T03:42:06.087Z,68.37
2023-03-27T03:44:34.773Z,68.41
2023-03-27T03:47:09.257Z,68.41
2023-03-27T03:49:36.100Z,68.41
2023-03-27T03:52:04.728Z,68.45
2023-03-27T03:54:33.150Z,68.46
2023-03-27T03:57:00.211Z,68.66
2023-03-27T03:59:27.344Z,68.55
2023-03-27T04:02:29.799Z,68.62
2023-03-27T04:05:08.429Z,68.51
2023-03-27T04:07:36.438Z,68.58
2023-03-27T04:10:41.031Z,68.58
2023-03-27T04:13:14.769Z,68.57
2023-03-27T04:15:51.598Z,68.50
2023-03-27T04:18:35.721Z,68.43
2023-03-27T04:21:06.997Z,68.43
2023-03-27T04:23:34.007Z,68.66
2023-03-27T04:26:03.450Z,68.51
2023-03-27T04:28:55.987Z,68.62
2023-03-27T04:31:55.510Z,68.83
2023-03-27T04:34:50.402Z,68.77
2023-03-27T04:37:36.271Z,68.82
2023-03-27T04:40:22.031Z,68.80
2023-03-27T04:42:50.431Z,68.54
2023-03-27T04:45:20.655Z,68.29
2023-03-27T04:47:49.233Z,68.32
2023-03-27T04:50:16.543Z,68.71
2023-03-27T04:52:44.983Z,68.88
2023-03-27T04:55:12.462Z,69.08
2023-03-27T04:57:41.987Z,68.98
2023-03-27T05:00:17.255Z,69.11
2023-03-27T05:02:47.968Z,68.96
2023-03-27T05:05:20.698Z,68.76
2023-03-27T05:07:49.726Z,68.80
2023-03-27T05:10:21.544Z,68.53
2023-03-27T05:12:51.543Z,68.72
2023-03-27T05:15:19.458Z,68.91
2023-03-27T05:17:54.566Z,68.99
2023-03-27T05:20:24.352Z,69.09
2023-03-27T05:22:56.529Z,68.70
2023-03-27T05:25:28.886Z,68.54
2023-03-27T05:27:56.449Z,68.51
2023-03-27T05:30:27.139Z,68.67
2023-03-27T05:33:09.629Z,68.86
2023-03-27T05:35:37.935Z,68.96
2023-03-27T05:38:06.747Z,69.26
2023-03-27T05:40:35.898Z,69.20
2023-03-27T05:43:04.225Z,69.27
2023-03-27T05:45:32.699Z,69.32
2023-03-27T05:48:02.912Z,69.36
2023-03-27T05:50:34.786Z,69.08
2023-03-27T05:53:11.258Z,69.04
2023-03-27T05:55:42.565Z,69.17
2023-03-27T05:58:11.924Z,69.50
2023-03-27T06:00:44.446Z,69.52
2023-03-27T06:03:17.431Z,69.54
2023-03-27T06:06:00.313Z,69.64
2023-03-27T06:08:29.951Z,69.75
2023-03-27T06:10:57.798Z,69.82
2023-03-27T06:13:32.126Z,69.77
2023-03-27T06:16:07.615Z,69.91
2023-03-27T06:18:54.537Z,70.08
2023-03-27T06:21:22.837Z,70.29
2023-03-27T06:23:50.520Z,70.17
2023-03-27T06:26:18.904Z,70.08
2023-03-27T06:28:46.290Z,69.88
2023-03-27T06:31:15.025Z,69.51
2023-03-27T06:34:15.309Z,69.24
2023-03-27T06:37:08.391Z,69.35
2023-03-27T06:39:39.172Z,69.22
2023-03-27T06:42:06.065Z,69.11
2023-03-27T06:44:45.754Z,68.93
2023-03-27T06:47:24.289Z,68.88
2023-03-27T06:50:24.539Z,68.79
2023-03-27T06:52:52.086Z,68.78
2023-03-27T06:55:37.995Z,68.87
2023-03-27T06:58:04.961Z,68.98
2023-03-27T07:00:35.508Z,69.03
2023-03-27T07:03:32.437Z,69.04
2023-03-27T07:06:19.557Z,69.05
2023-03-27T07:08:57.654Z,69.14
2023-03-27T07:11:25.657Z,69.13
2023-03-27T07:13:58.102Z,69.05
2023-03-27T07:16:27.523Z,68.89
2023-03-27T07:18:54.831Z,68.84
2023-03-27T07:21:23.236Z,68.79
2023-03-27T07:23:50.305Z,68.73
2023-03-27T07:26:27.601Z,68.77
2023-03-27T07:29:00.777Z,68.80
2023-03-27T07:31:48.976Z,68.83
2023-03-27T07:34:16.978Z,68.72
2023-03-27T07:37:07.290Z,68.54
2023-03-27T07:39:34.278Z,68.47
2023-03-27T07:42:01.567Z,68.61
2023-03-27T07:44:48.215Z,68.75
2023-03-27T07:47:15.253Z,68.93
2023-03-27T07:49:42.153Z,69.07
2023-03-27T07:52:12.911Z,69.00
2023-03-27T07:55:01.899Z,68.95
2023-03-27T07:57:54.462Z,69.02
2023-03-27T08:00:26.178Z,69.02
2023-03-27T08:03:11.944Z,68.88
2023-03-27T08:05:43.414Z,68.89
2023-03-27T08:08:12.938Z,69.01
2023-03-27T08:10:53.948Z,68.96
2023-03-27T08:13:21.352Z,68.96
2023-03-27T08:15:48.811Z,69.12
2023-03-27T08:18:27.307Z,69.00
2023-03-27T08:20:58.672Z,68.63
2023-03-27T08:23:29.108Z,68.40
2023-03-27T08:26:05.932Z,67.91
2023-03-27T08:28:38.878Z,66.95
2023-03-27T08:31:15.288Z,66.32
2023-03-27T08:33:43.500Z,66.27
2023-03-27T08:36:14.862Z,66.68
2023-03-27T08:38:43.405Z,67.02
2023-03-27T08:41:24.733Z,66.81
2023-03-27T08:44:04.038Z,66.58
2023-03-27T08:47:06.151Z,66.60
2023-03-27T08:49:44.847Z,66.40
2023-03-27T08:52:27.469Z,66.11
2023-03-27T08:55:00.732Z,66.28
2023-03-27T08:57:35.201Z,65.95
2023-03-27T09:00:19.815Z,65.11
2023-03-27T09:03:01.296Z,64.90
2023-03-27T09:05:42.948Z,64.77
2023-03-27T09:08:25.975Z,64.92
2023-03-27T09:11:01.741Z,65.23
2023-03-27T09:13:49.137Z,65.10
2023-03-27T09:16:21.459Z,64.15
2023-03-27T09:19:00.732Z,64.01
2023-03-27T09:21:58.236Z,64.17
2023-03-27T09:24:52.423Z,64.21
2023-03-27T09:27:53.324Z,64.05
2023-03-27T09:30:43.884Z,64.19
2023-03-27T09:33:31.386Z,63.94
2023-03-27T09:35:59.313Z,64.12
2023-03-27T09:38:35.796Z,63.84
2023-03-27T09:41:11.806Z,63.90
2023-03-27T09:44:07.496Z,63.65
2023-03-27T09:46:42.878Z,63.19
2023-03-27T09:49:18.614Z,63.02
2023-03-27T09:51:52.332Z,63.06
2023-03-27T09:54:51.425Z,63.19
2023-03-27T09:57:18.752Z,63.35
2023-03-27T10:00:00.838Z,63.44
2023-03-27T10:02:31.938Z,63.38
2023-03-27T10:05:18.127Z,63.35
2023-03-27T10:07:47.598Z,63.33
2023-03-27T10:10:56.430Z,63.25
2023-03-27T10:13:48.592Z,63.02
2023-03-27T10:16:20.169Z,63.17
2023-03-27T10:18:59.998Z,63.14
2023-03-27T10:21:32.794Z,63.20
2023-03-27T10:24:17.561Z,63.18
2023-03-27T10:26:59.574Z,63.23
2023-03-27T10:29:29.625Z,63.26
2023-03-27T10:31:59.091Z,63.28
2023-03-27T10:34:53.007Z,63.21
2023-03-27T10:37:41.207Z,62.95
2023-03-27T10:40:29.974Z,62.85
2023-03-27T10:43:06.046Z,62.73
2023-03-27T10:45:48.289Z,62.74
2023-03-27T10:48:23.389Z,62.68
2023-03-27T10:50:58.010Z,62.65
2023-03-27T10:53:52.444Z,62.69
2023-03-27T10:56:31.452Z,62.90
2023-03-27T10:59:04.559Z,63.00
2023-03-27T11:01:42.699Z,62.98
2023-03-27T11:04:44.535Z,63.01
2023-03-27T11:07:20.923Z,63.03
2023-03-27T11:10:03.339Z,63.18
2023-03-27T11:12:37.204Z,63.22
2023-03-27T11:15:17.520Z,63.28
2023-03-27T11:17:52.405Z,63.22
2023-03-27T11:20:50.810Z,63.05
2023-03-27T11:23:33.527Z,62.79
2023-03-27T11:26:23.615Z,62.64
2023-03-27T11:29:04.365Z,62.66
2023-03-27T11:31:46.524Z,62.69
2023-03-27T11:34:36.662Z,62.77
2023-03-27T11:37:58.022Z,62.90
2023-03-27T11:40:39.566Z,62.93
2023-03-27T11:43:09.722Z,62.96
2023-03-27T11:45:47.541Z,62.97
2023-03-27T11:48:57.186Z,62.99
2023-03-27T11:51:24.500Z,62.83
2023-03-27T11:54:07.714Z,62.62
2023-03-27T11:56:58.122Z,62.61
2023-03-27T11:59:48.789Z,62.54
2023-03-27T12:02:31.624Z,62.52
2023-03-27T12:05:06.647Z,62.38
2023-03-27T12:08:27.435Z,62.31
2023-03-27T12:10:59.175Z,62.28
2023-03-27T12:14:23.812Z,62.49
2023-03-27T12:17:16.225Z,62.79
2023-03-27T12:20:31.095Z,63.28
2023-03-27T12:23:18.372Z,63.38
2023-03-27T12:26:31.274Z,62.55
2023-03-27T12:29:23.511Z,62.30
2023-03-27T12:32:04.936Z,62.06
2023-03-27T12:34:59.987Z,61.85
2023-03-27T12:37:45.771Z,61.99
2023-03-27T12:40:24.736Z,61.98
2023-03-27T12:42:54.371Z,61.88
2023-03-27T12:45:27.124Z,61.89
2023-03-27T12:48:10.680Z,61.64
2023-03-27T12:50:52.335Z,61.56
2023-03-27T12:53:20.099Z,61.45
2023-03-27T12:55:47.352Z,61.55
2023-03-27T12:58:34.650Z,61.61
2023-03-27T13:01:27.547Z,61.82
2023-03-27T13:04:11.165Z,62.06
2023-03-27T13:07:09.181Z,62.10
2023-03-27T13:10:25.763Z,61.77
2023-03-27T13:12:58.873Z,61.70
2023-03-27T13:16:07.217Z,61.40
2023-03-27T13:19:10.636Z,61.19
2023-03-27T13:22:28.174Z,61.01
2023-03-27T13:25:14.844Z,60.81
2023-03-27T13:27:47.828Z,60.81
2023-03-27T13:30:50.771Z,60.92
2023-03-27T13:33:47.772Z,61.14
2023-03-27T13:36:28.254Z,61.42
2023-03-27T13:38:55.246Z,61.32
2023-03-27T13:41:44.050Z,61.09
2023-03-27T13:44:35.601Z,60.96
2023-03-27T13:47:34.018Z,61.01
2023-03-27T13:50:25.027Z,60.88
2023-03-27T13:53:24.701Z,60.79
2023-03-27T13:56:31.650Z,60.31
2023-03-27T13:59:40.037Z,60.25
2023-03-27T14:02:37.005Z,60.19
2023-03-27T14:05:22.029Z,60.22
2023-03-27T14:08:31.623Z,60.16
2023-03-27T14:12:21.005Z,60.13
2023-03-27T14:15:30.250Z,60.09
2023-03-27T14:18:18.209Z,60.12
2023-03-27T14:20:50.678Z,60.10
2023-03-27T14:23:28.549Z,60.00
2023-03-27T14:26:18.641Z,59.92
2023-03-27T14:28:54.567Z,60.04
2023-03-27T14:31:35.626Z,60.11
2023-03-27T14:34:35.307Z,60.17
2023-03-27T14:37:30.977Z,60.13
2023-03-27T14:40:11.087Z,60.13
2023-03-27T14:42:48.351Z,60.01
2023-03-27T14:45:22.176Z,59.94
2023-03-27T14:47:57.472Z,59.89
2023-03-27T14:50:27.959Z,60.11
2023-03-27T14:52:59.065Z,60.24
2023-03-27T14:55:36.159Z,60.05
2023-03-27T14:58:36.044Z,60.39
2023-03-27T15:01:05.490Z,60.90
2023-03-27T15:03:39.566Z,61.00
2023-03-27T15:06:27.318Z,60.74
2023-03-27T15:09:05.829Z,60.60
2023-03-27T15:12:00.790Z,60.86
2023-03-27T15:14:33.308Z,61.30
2023-03-27T15:17:15.960Z,61.18
2023-03-27T15:19:56.384Z,60.48
2023-03-27T15:22:47.857Z,60.18
2023-03-27T15:25:31.064Z,60.22
2023-03-27T15:28:04.628Z,59.96
2023-03-27T15:30:51.691Z,59.53
2023-03-27T15:33:35.817Z,59.80
2023-03-27T15:36:11.835Z,60.18
2023-03-27T15:38:41.884Z,61.15
2023-03-27T15:41:48.113Z,60.65
2023-03-27T15:44:26.107Z,60.81
2023-03-27T15:46:59.493Z,60.71
2023-03-27T15:49:41.535Z,60.56
2023-03-27T15:52:47.202Z,60.26
2023-03-27T15:55:43.038Z,60.30
2023-03-27T15:58:29.795Z,60.15
2023-03-27T16:01:18.494Z,61.05
2023-03-27T16:11:45.947Z,59.47
2023-03-27T16:14:30.517Z,59.27
2023-03-27T16:17:14.944Z,59.16
2023-03-27T16:19:43.538Z,59.40
2023-03-27T16:22:10.586Z,59.46
2023-03-27T16:24:37.644Z,59.39
2023-03-27T16:27:04.605Z,59.59
2023-03-27T16:29:31.537Z,59.61
2023-03-27T16:31:58.525Z,59.56
2023-03-27T16:34:25.442Z,59.59
2023-03-27T16:36:52.638Z,59.73
2023-03-27T16:39:19.766Z,59.78
2023-03-27T16:41:46.912Z,59.72
2023-03-27T16:44:13.857Z,59.88
2023-03-27T16:46:41.116Z,60.02
2023-03-27T16:49:12.170Z,59.96
2023-03-27T16:51:39.314Z,60.13
2023-03-27T16:54:06.578Z,60.09
2023-03-27T16:56:35.427Z,60.16
2023-03-27T16:59:03.037Z,60.19
2023-03-27T17:01:30.752Z,60.14
2023-03-27T17:03:57.738Z,60.30
2023-03-27T17:06:25.551Z,60.23
2023-03-27T17:08:56.031Z,60.33
2023-03-27T17:11:23.724Z,60.28
2023-03-27T17:13:51.029Z,60.30
2023-03-27T17:16:18.019Z,60.46
2023-03-27T17:18:45.186Z,60.43
2023-03-27T17:21:12.234Z,60.45
2023-03-27T17:23:41.155Z,60.40
2023-03-27T17:26:11.019Z,60.37
2023-03-27T17:28:39.780Z,60.38
2023-03-27T17:31:07.634Z,60.41
2023-03-27T17:33:34.688Z,60.47
2023-03-27T17:36:07.983Z,60.37
2023-03-27T17:38:35.085Z,60.49
2023-03-27T17:41:02.422Z,60.60
2023-03-27T17:43:29.897Z,60.68
2023-03-27T17:45:57.148Z,60.67
2023-03-27T17:48:24.520Z,60.73
2023-03-27T17:51:05.058Z,60.78
2023-03-27T17:53:37.155Z,60.75
2023-03-27T17:56:04.443Z,60.74
2023-03-27T17:58:34.589Z,60.86
2023-03-27T18:01:12.627Z,60.93
2023-03-27T18:03:39.666Z,60.90
2023-03-27T18:06:06.993Z,60.88
2023-03-27T18:08:34.414Z,60.85
2023-03-27T18:11:01.545Z,60.97
2023-03-27T18:13:30.641Z,61.05
2023-03-27T18:15:58.669Z,61.04
2023-03-27T18:18:26.430Z,60.90
2023-03-27T18:20:57.322Z,60.95
2023-03-27T18:23:24.287Z,60.98
2023-03-27T18:25:51.118Z,60.89
2023-03-27T18:28:17.965Z,60.85
2023-03-27T18:30:44.971Z,60.98
2023-03-27T18:33:12.440Z,61.01
2023-03-27T18:35:39.537Z,61.03
2023-03-27T18:38:06.912Z,60.98
2023-03-27T18:40:33.955Z,61.01
2023-03-27T18:43:01.387Z,61.07
2023-03-27T18:45:28.540Z,61.02
2023-03-27T18:47:55.783Z,60.96
2023-03-27T18:50:23.771Z,61.07
2023-03-27T18:52:50.916Z,61.05
2023-03-27T18:55:18.850Z,61.08
2023-03-27T18:57:46.357Z,60.94
2023-03-27T19:00:18.620Z,60.93
2023-03-27T19:02:46.503Z,60.99
2023-03-27T19:05:15.527Z,60.98
2023-03-27T19:07:44.462Z,60.88
2023-03-27T19:10:14.125Z,60.77
2023-03-27T19:12:46.072Z,60.77
2023-03-27T19:15:32.476Z,60.86
2023-03-27T19:18:05.908Z,60.84
2023-03-27T19:21:00.095Z,60.79
2023-03-27T19:23:45.939Z,60.84
2023-03-27T19:26:17.822Z,60.75
2023-03-27T19:28:48.042Z,60.71
2023-03-27T19:31:16.110Z,60.66
2023-03-27T19:33:43.640Z,60.69
2023-03-27T19:36:13.052Z,60.68
2023-03-27T19:38:40.420Z,60.61
2023-03-27T19:41:11.252Z,60.62
2023-03-27T19:43:41.120Z,60.60
2023-03-27T19:46:16.270Z,60.58
2023-03-27T19:48:51.588Z,60.60
2023-03-27T19:51:37.631Z,60.51
2023-03-27T19:54:04.992Z,60.62
2023-03-27T19:56:32.597Z,60.44
2023-03-27T19:59:00.031Z,60.40
2023-03-27T20:01:28.749Z,60.43
2023-03-27T20:03:57.461Z,60.30
2023-03-27T20:06:26.348Z,60.38
2023-03-27T20:08:53.749Z,60.28
2023-03-27T20:11:20.810Z,60.34
2023-03-27T20:13:55.955Z,60.24
2023-03-27T20:16:26.650Z,60.17
2023-03-27T20:19:04.604Z,60.18
2023-03-27T20:21:35.339Z,60.21
2023-03-27T20:24:07.396Z,60.20
2023-03-27T20:26:39.576Z,60.13
2023-03-27T20:29:18.485Z,60.10
2023-03-27T20:31:46.241Z,60.01
2023-03-27T20:34:13.813Z,60.09
2023-03-27T20:36:40.972Z,60.09
2023-03-27T20:39:34.428Z,60.12
2023-03-27T20:42:01.472Z,60.04
2023-03-27T20:44:37.122Z,59.99
2023-03-27T20:47:12.389Z,59.97
2023-03-27T20:49:43.386Z,59.98
2023-03-27T20:52:13.333Z,59.93
2023-03-27T20:54:40.787Z,59.88
2023-03-27T20:57:10.404Z,59.83
2023-03-27T20:59:37.554Z,59.81
2023-03-27T21:02:05.382Z,59.85
2023-03-27T21:04:32.685Z,59.79
2023-03-27T21:06:59.746Z,59.84
2023-03-27T21:09:27.810Z,59.86
2023-03-27T21:11:55.927Z,59.82
2023-03-27T21:14:23.450Z,59.77
2023-03-27T21:16:50.601Z,59.76
2023-03-27T21:19:20.024Z,59.75
2023-03-27T21:21:47.432Z,59.79
2023-03-27T21:24:14.532Z,59.77
2023-03-27T21:26:42.000Z,59.77
2023-03-27T21:29:11.104Z,59.77
2023-03-27T21:31:39.541Z,59.74
2023-03-27T21:34:07.463Z,59.79
2023-03-27T21:36:35.295Z,59.71
2023-03-27T21:39:02.387Z,59.76
2023-03-27T21:41:29.694Z,59.72
2023-03-27T21:43:56.705Z,59.78
2023-03-27T21:46:23.892Z,59.70
2023-03-27T21:48:51.717Z,59.66
2023-03-27T21:51:19.524Z,59.67
2023-03-27T21:53:46.972Z,59.69
2023-03-27T21:56:14.124Z,59.73
2023-03-27T21:58:41.052Z,59.80
2023-03-27T22:01:08.468Z,59.75
2023-03-27T22:03:35.779Z,59.78
2023-03-27T22:06:12.603Z,59.72
2023-03-27T22:08:43.040Z,59.80
2023-03-27T22:11:11.912Z,59.78
2023-03-27T22:13:39.509Z,59.66
2023-03-27T22:16:15.037Z,59.73
2023-03-27T22:18:43.369Z,59.77
2023-03-27T22:21:25.560Z,59.69
2023-03-27T22:23:54.071Z,59.74
2023-03-27T22:26:33.398Z,59.72
2023-03-27T22:29:00.633Z,59.74
2023-03-27T22:31:29.442Z,59.83
2023-03-27T22:33:56.788Z,59.84
2023-03-27T22:36:23.981Z,59.86
2023-03-27T22:38:53.517Z,59.79
2023-03-27T22:41:20.511Z,59.88
2023-03-27T22:43:49.665Z,59.88
2023-03-27T22:46:19.686Z,59.89
2023-03-27T22:48:47.100Z,59.81
2023-03-27T22:51:14.461Z,59.94
2023-03-27T22:53:42.008Z,59.92
2023-03-27T22:56:10.043Z,59.90
2023-03-27T22:58:37.135Z,59.94
2023-03-27T23:01:05.928Z,59.83
2023-03-27T23:03:33.464Z,59.93
2023-03-27T23:06:00.937Z,59.89
2023-03-27T23:08:28.725Z,59.85
2023-03-27T23:11:01.319Z,59.93
2023-03-27T23:13:30.182Z,59.92
2023-03-27T23:15:57.774Z,59.91
2023-03-27T23:18:25.644Z,59.95
2023-03-27T23:20:58.021Z,59.91
2023-03-27T23:23:26.628Z,60.00
2023-03-27T23:25:54.272Z,59.96
2023-03-27T23:28:21.815Z,59.94
2023-03-27T23:30:56.793Z,59.99
2023-03-27T23:33:25.438Z,59.96
2023-03-27T23:35:54.158Z,59.90
2023-03-27T23:38:21.097Z,59.91
2023-03-27T23:40:54.902Z,59.99
2023-03-27T23:43:21.799Z,60.05
2023-03-27T23:45:48.753Z,60.05
2023-03-27T23:48:15.855Z,59.99
2023-03-27T23:50:42.815Z,60.00
2023-03-27T23:53:09.671Z,60.12
2023-03-27T23:55:36.603Z,60.11
2023-03-27T23:58:04.538Z,60.11
